首页
METAR-TAF:

METAR-TAF

机场 :

迈克蒂亚西蒙·玻利瓦尔国际机场

卡拉卡斯, 委内瑞拉

纬度: 10-36N, 经度: 066-59W, 海拔: 43米

当前天气观测

该预报发布于58分钟前的10:02 UTC
风速3节,风向东转东北
温度
气压 1010 hPa

METAR: SVMI 151002Z AUTO 06003KT NCD ///// Q1010

时间: 07:00 (11:00 UTC)

预报

该预报发布于19小时和0分钟前的16:00 UTC
预报有效从14日的 18点(UTC)到 15日的 18点(UTC)
风速5节,风向
能见度10公里或以上
散云层高于1600英尺
成为
从 14日的 18点(UTC)到 14日的 22点(UTC)
风速6节,风向南转西南
能见度10公里或以上
散云层高于1600英尺

TAF: SVMI 141600Z 1418/1518 09005KT 9999 SCT016 TX31/1418Z TN24/1408Z BECMG 1418/1422 21006KT 9999 SCT016

超过4000个机场的气象观测和天气预报(METAR&TAF报告)。

可查询的气象台以黄色和红色小点在地图上表示。

将鼠标移到小点上方,可查看气象台名称。

然后点击查看天气观测和预报。

如需切换地图:点击带黑十字的绿色按钮放大地图;点击带横线的绿色按钮缩小地图;或者点击绿色箭头查看邻近地区的地图。


METAR-TAF: